createdAt,value
2023-01-01T00:01:16.583Z,102297.88
2023-01-01T00:03:59.775Z,102292.03
2023-01-01T00:06:27.933Z,102289.03
2023-01-01T00:09:14.715Z,102287.16
2023-01-01T00:11:42.855Z,102291.22
2023-01-01T00:14:12.652Z,102295.19
2023-01-01T00:16:40.777Z,102297.88
2023-01-01T00:19:09.196Z,102286.97
2023-01-01T00:21:37.395Z,102280.03
2023-01-01T00:24:07.743Z,102267.97
2023-01-01T00:26:35.885Z,102277.59
2023-01-01T00:29:05.026Z,102276.03
2023-01-01T00:31:33.000Z,102279.75
2023-01-01T00:34:01.784Z,102283.25
2023-01-01T00:36:30.700Z,102277.63
2023-01-01T00:38:59.056Z,102275.75
2023-01-01T00:41:27.014Z,102280.34
2023-01-01T00:43:55.283Z,102278.16
2023-01-01T00:46:23.239Z,102272.06
2023-01-01T00:48:51.534Z,102275.81
2023-01-01T00:51:19.474Z,102273.41
2023-01-01T00:53:47.636Z,102267.78
2023-01-01T00:56:15.705Z,102278.72
2023-01-01T00:58:45.347Z,102273.69
2023-01-01T01:01:29.381Z,102285.44
2023-01-01T01:03:57.804Z,102280.13
2023-01-01T01:06:25.731Z,102277.72
2023-01-01T01:08:54.077Z,102280.38
2023-01-01T01:11:26.400Z,102277.41
2023-01-01T01:13:56.879Z,102276.59
2023-01-01T01:16:31.414Z,102282.19
2023-01-01T01:19:02.774Z,102278.97
2023-01-01T01:21:32.702Z,102287.00
2023-01-01T01:24:03.734Z,102290.22
2023-01-01T01:26:34.178Z,102285.97
2023-01-01T01:29:03.475Z,102283.56
2023-01-01T01:31:33.580Z,102279.03
2023-01-01T01:34:02.402Z,102276.63
2023-01-01T01:36:30.547Z,102275.31
2023-01-01T01:38:58.988Z,102271.56
2023-01-01T01:41:28.879Z,102270.47
2023-01-01T01:44:04.485Z,102269.97
2023-01-01T01:46:37.689Z,102265.69
2023-01-01T01:49:15.623Z,102273.94
2023-01-01T01:51:44.709Z,102275.53
2023-01-01T01:54:18.933Z,102264.03
2023-01-01T01:56:55.627Z,102273.91
2023-01-01T01:59:27.785Z,102270.47
2023-01-01T02:01:56.458Z,102265.91
2023-01-01T02:04:26.209Z,102263.25
2023-01-01T02:06:55.463Z,102266.72
2023-01-01T02:09:23.812Z,102254.72
2023-01-01T02:11:51.812Z,102253.94
2023-01-01T02:14:20.184Z,102248.59
2023-01-01T02:16:55.993Z,102246.72
2023-01-01T02:19:59.695Z,102248.06
2023-01-01T02:22:36.971Z,102246.66
2023-01-01T02:25:10.826Z,102231.66
2023-01-01T02:28:06.415Z,102231.13
2023-01-01T02:30:37.122Z,102236.78
2023-01-01T02:33:12.341Z,102234.66
2023-01-01T02:35:49.754Z,102237.59
2023-01-01T02:38:26.382Z,102240.56
2023-01-01T02:41:20.020Z,102245.81
2023-01-01T02:43:48.289Z,102234.03
2023-01-01T02:48:52.247Z,102241.78
2023-01-01T02:51:36.984Z,102235.66
2023-01-01T02:54:35.602Z,102245.59
2023-01-01T02:57:32.208Z,102248.22
2023-01-01T03:00:28.512Z,102243.63
2023-01-01T03:03:23.259Z,102244.50
2023-01-01T03:06:15.692Z,102254.16
2023-01-01T03:09:02.354Z,102253.28
2023-01-01T03:11:56.397Z,102249.28
2023-01-01T03:14:41.006Z,102249.88
2023-01-01T03:17:29.006Z,102248.53
2023-01-01T03:20:01.656Z,102244.00
2023-01-01T03:25:13.330Z,102237.06
2023-01-01T03:27:46.934Z,102228.81
2023-01-01T03:30:22.643Z,102228.28
2023-01-01T03:33:08.385Z,102225.53
2023-01-01T03:35:55.042Z,102225.03
2023-01-01T03:38:35.923Z,102227.72
2023-01-01T03:41:13.913Z,102223.97
2023-01-01T03:43:49.930Z,102225.00
2023-01-01T03:46:24.320Z,102222.84
2023-01-01T03:49:03.873Z,102220.16
2023-01-01T03:51:42.445Z,102219.34
2023-01-01T03:54:38.826Z,102215.81
2023-01-01T03:57:40.294Z,102217.66
2023-01-01T04:00:16.758Z,102216.59
2023-01-01T04:03:02.778Z,102208.38
2023-01-01T04:05:33.830Z,102209.50
2023-01-01T04:08:04.257Z,102208.13
2023-01-01T04:10:35.895Z,102206.78
2023-01-01T04:13:06.923Z,102201.97
2023-01-01T04:15:38.225Z,102198.84
2023-01-01T04:18:06.592Z,102202.03
2023-01-01T04:20:34.549Z,102199.59
2023-01-01T04:23:03.143Z,102207.91
2023-01-01T04:25:31.853Z,102211.94
2023-01-01T04:28:02.714Z,102212.97
2023-01-01T04:30:31.087Z,102219.53
2023-01-01T04:32:59.305Z,102209.47
2023-01-01T04:35:27.669Z,102217.72
2023-01-01T04:37:55.982Z,102216.91
2023-01-01T04:40:23.943Z,102211.84
2023-01-01T04:42:54.753Z,102217.19
2023-01-01T04:45:22.699Z,102217.41
2023-01-01T04:47:51.651Z,102217.63
2023-01-01T04:50:19.639Z,102219.47
2023-01-01T04:52:51.457Z,102210.72
2023-01-01T04:55:21.013Z,102216.13
2023-01-01T04:57:49.260Z,102215.63
2023-01-01T05:00:18.205Z,102216.44
2023-01-01T05:02:46.554Z,102216.16
2023-01-01T05:05:14.650Z,102223.88
2023-01-01T05:07:43.566Z,102226.28
2023-01-01T05:10:11.538Z,102225.19
2023-01-01T05:12:39.837Z,102225.16
2023-01-01T05:15:08.457Z,102220.31
2023-01-01T05:17:36.828Z,102225.72
2023-01-01T05:20:05.837Z,102227.78
2023-01-01T05:22:34.116Z,102232.63
2023-01-01T05:25:02.224Z,102232.19
2023-01-01T05:27:31.715Z,102227.59
2023-01-01T05:29:59.937Z,102230.56
2023-01-01T05:32:28.630Z,102227.59
2023-01-01T05:34:56.646Z,102224.97
2023-01-01T05:37:24.936Z,102225.47
2023-01-01T05:39:52.975Z,102225.81
2023-01-01T05:42:22.587Z,102222.59
2023-01-01T05:44:50.517Z,102222.53
2023-01-01T05:47:19.035Z,102224.66
2023-01-01T05:49:47.594Z,102221.50
2023-01-01T05:52:16.967Z,102222.28
2023-01-01T05:54:47.358Z,102221.75
2023-01-01T05:57:17.385Z,102227.25
2023-01-01T05:59:45.405Z,102222.78
2023-01-01T06:02:13.858Z,102224.38
2023-01-01T06:04:42.058Z,102228.75
2023-01-01T06:07:10.342Z,102218.66
2023-01-01T06:09:38.315Z,102219.19
2023-01-01T06:12:08.415Z,102214.94
2023-01-01T06:14:37.437Z,102216.06
2023-01-01T06:17:06.998Z,102208.56
2023-01-01T06:19:34.970Z,102215.19
2023-01-01T06:22:04.396Z,102224.00
2023-01-01T06:24:38.654Z,102218.44
2023-01-01T06:27:07.992Z,102213.66
2023-01-01T06:29:35.990Z,102218.97
2023-01-01T06:32:04.608Z,102220.59
2023-01-01T06:34:33.246Z,102218.16
2023-01-01T06:37:06.724Z,102226.63
2023-01-01T06:39:35.186Z,102231.16
2023-01-01T06:42:04.815Z,102233.28
2023-01-01T06:44:32.781Z,102230.97
2023-01-01T06:47:02.266Z,102229.09
2023-01-01T06:49:30.208Z,102236.78
2023-01-01T06:51:58.548Z,102226.44
2023-01-01T06:54:26.460Z,102232.22
2023-01-01T06:56:56.433Z,102239.47
2023-01-01T06:59:24.464Z,102238.09
2023-01-01T07:01:52.874Z,102241.06
2023-01-01T07:04:20.947Z,102243.91
2023-01-01T07:06:49.247Z,102245.53
2023-01-01T07:09:17.216Z,102243.66
2023-01-01T07:11:46.212Z,102247.69
2023-01-01T07:14:14.246Z,102250.81
2023-01-01T07:16:44.030Z,102241.50
2023-01-01T07:19:12.322Z,102241.19
2023-01-01T07:21:55.365Z,102242.84
2023-01-01T07:24:24.022Z,102243.88
2023-01-01T07:26:52.548Z,102240.59
2023-01-01T07:29:20.578Z,102237.94
2023-01-01T07:31:49.409Z,102242.25
2023-01-01T07:34:20.076Z,102243.34
2023-01-01T07:36:49.274Z,102236.06
2023-01-01T07:39:17.268Z,102241.19
2023-01-01T07:41:46.113Z,102241.97
2023-01-01T07:44:14.713Z,102238.16
2023-01-01T07:46:43.125Z,102237.59
2023-01-01T07:49:11.285Z,102238.94
2023-01-01T07:51:39.679Z,102246.41
2023-01-01T07:54:08.035Z,102246.25
2023-01-01T07:56:36.834Z,102243.59
2023-01-01T07:59:05.197Z,102251.75
2023-01-01T08:01:38.348Z,102251.59
2023-01-01T08:04:06.495Z,102249.97
2023-01-01T08:06:34.846Z,102254.00
2023-01-01T08:09:02.933Z,102248.66
2023-01-01T08:11:31.359Z,102256.97
2023-01-01T08:13:59.416Z,102261.63
2023-01-01T08:16:27.863Z,102264.31
2023-01-01T08:18:55.975Z,102259.50
2023-01-01T08:21:24.299Z,102256.25
2023-01-01T08:23:52.306Z,102259.94
2023-01-01T08:26:29.881Z,102261.81
2023-01-01T08:28:58.578Z,102271.44
2023-01-01T08:31:26.907Z,102274.59
2023-01-01T08:33:54.859Z,102266.13
2023-01-01T08:36:23.466Z,102263.94
2023-01-01T08:38:51.464Z,102268.47
2023-01-01T08:41:19.761Z,102260.56
2023-01-01T08:43:47.767Z,102260.53
2023-01-01T08:46:16.578Z,102253.72
2023-01-01T08:48:44.693Z,102252.59
2023-01-01T08:51:13.333Z,102260.34
2023-01-01T08:53:45.517Z,102262.56
2023-01-01T08:56:19.271Z,102260.22
2023-01-01T08:58:47.229Z,102262.25
2023-01-01T09:01:16.222Z,102260.94
2023-01-01T09:03:45.103Z,102263.88
2023-01-01T09:06:14.095Z,102257.66
2023-01-01T09:08:42.196Z,102258.00
2023-01-01T09:11:25.314Z,102261.66
2023-01-01T09:13:54.180Z,102266.47
2023-01-01T09:16:23.457Z,102265.84
2023-01-01T09:18:51.672Z,102271.88
2023-01-01T09:21:20.046Z,102277.00
2023-01-01T09:23:48.271Z,102274.78
2023-01-01T09:26:16.629Z,102279.56
2023-01-01T09:28:44.675Z,102275.50
2023-01-01T09:31:13.078Z,102274.38
2023-01-01T09:33:41.102Z,102285.66
2023-01-01T09:36:27.847Z,102280.69
2023-01-01T09:38:57.712Z,102268.13
2023-01-01T09:41:48.755Z,102260.63
2023-01-01T09:44:50.196Z,102268.97
2023-01-01T09:47:23.005Z,102272.94
2023-01-01T09:49:52.946Z,102276.56
2023-01-01T09:52:22.989Z,102271.75
2023-01-01T09:54:58.412Z,102275.47
2023-01-01T09:57:31.306Z,102272.78
2023-01-01T09:59:59.846Z,102274.28
2023-01-01T10:02:41.403Z,102267.97
2023-01-01T10:05:18.914Z,102260.53
2023-01-01T10:08:05.220Z,102258.28
2023-01-01T10:10:50.396Z,102255.28
2023-01-01T10:13:42.734Z,102260.03
2023-01-01T10:16:35.770Z,102244.59
2023-01-01T10:19:26.166Z,102250.56
2023-01-01T10:22:00.341Z,102247.22
2023-01-01T10:24:59.705Z,102251.03
2023-01-01T10:27:38.888Z,102243.19
2023-01-01T10:30:16.650Z,102237.94
2023-01-01T10:32:52.016Z,102241.94
2023-01-01T10:35:42.127Z,102232.88
2023-01-01T10:38:19.799Z,102224.13
2023-01-01T10:40:48.196Z,102224.19
2023-01-01T10:43:16.221Z,102227.91
2023-01-01T10:45:53.688Z,102225.72
2023-01-01T10:48:24.027Z,102222.81
2023-01-01T10:50:53.880Z,102223.84
2023-01-01T10:53:31.733Z,102213.94
2023-01-01T10:56:16.365Z,102219.78
2023-01-01T10:58:45.674Z,102220.56
2023-01-01T11:01:26.228Z,102210.09
2023-01-01T11:04:21.480Z,102191.97
2023-01-01T11:06:49.932Z,102201.69
2023-01-01T11:09:31.996Z,102197.25
2023-01-01T11:12:15.258Z,102193.53
2023-01-01T11:14:56.859Z,102192.25
2023-01-01T11:17:37.045Z,102183.63
2023-01-01T11:20:06.549Z,102189.88
2023-01-01T11:22:44.317Z,102190.50
2023-01-01T11:25:32.954Z,102181.91
2023-01-01T11:28:16.291Z,102181.13
2023-01-01T11:31:02.576Z,102178.66
2023-01-01T11:33:35.104Z,102170.00
2023-01-01T11:36:05.392Z,102171.88
2023-01-01T11:38:34.976Z,102172.44
2023-01-01T11:41:06.656Z,102170.03
2023-01-01T11:43:41.685Z,102173.41
2023-01-01T11:46:13.797Z,102161.56
2023-01-01T11:48:44.151Z,102164.91
2023-01-01T11:51:33.135Z,102156.16
2023-01-01T11:54:25.069Z,102157.81
2023-01-01T11:57:04.050Z,102150.13
2023-01-01T11:59:46.255Z,102151.50
2023-01-01T12:02:23.054Z,102150.56
2023-01-01T12:05:01.481Z,102143.97
2023-01-01T12:07:36.123Z,102151.09
2023-01-01T12:10:14.886Z,102148.56
2023-01-01T12:13:00.877Z,102145.44
2023-01-01T12:15:47.216Z,102148.44
2023-01-01T12:18:28.070Z,102148.13
2023-01-01T12:21:11.739Z,102141.00
2023-01-01T12:23:40.423Z,102144.50
2023-01-01T12:26:08.662Z,102151.81
2023-01-01T12:28:51.723Z,102150.16
2023-01-01T12:31:30.220Z,102149.06
2023-01-01T12:34:05.784Z,102144.09
2023-01-01T12:36:57.436Z,102139.97
2023-01-01T12:39:40.374Z,102132.28
2023-01-01T12:42:15.804Z,102131.38
2023-01-01T12:45:03.955Z,102134.72
2023-01-01T12:47:36.360Z,102129.81
2023-01-01T12:50:28.937Z,102126.66
2023-01-01T12:53:10.554Z,102129.75
2023-01-01T12:55:50.952Z,102123.72
2023-01-01T12:58:34.824Z,102127.69
2023-01-01T13:01:14.831Z,102123.16
2023-01-01T13:03:55.845Z,102123.38
2023-01-01T13:06:45.957Z,102117.44
2023-01-01T13:09:26.452Z,102117.91
2023-01-01T13:11:59.406Z,102113.34
2023-01-01T13:14:28.165Z,102122.50
2023-01-01T13:16:57.953Z,102113.63
2023-01-01T13:19:41.093Z,102109.00
2023-01-01T13:22:27.437Z,102106.41
2023-01-01T13:25:11.176Z,102113.38
2023-01-01T13:28:03.377Z,102113.31
2023-01-01T13:30:38.434Z,102114.59
2023-01-01T13:33:29.880Z,102116.47
2023-01-01T13:36:13.272Z,102115.94
2023-01-01T13:38:45.370Z,102121.28
2023-01-01T13:41:25.858Z,102114.50
2023-01-01T13:44:10.835Z,102109.72
2023-01-01T13:46:42.291Z,102111.19
2023-01-01T13:49:31.177Z,102111.94
2023-01-01T13:52:24.516Z,102115.06
2023-01-01T13:55:08.648Z,102124.66
2023-01-01T13:57:48.302Z,102125.50
2023-01-01T14:00:21.574Z,102119.06
2023-01-01T14:03:01.496Z,102120.72
2023-01-01T14:05:42.093Z,102123.03
2023-01-01T14:08:35.663Z,102122.34
2023-01-01T14:11:21.363Z,102124.88
2023-01-01T14:13:51.067Z,102134.28
2023-01-01T14:16:19.210Z,102132.28
2023-01-01T14:18:53.907Z,102128.28
2023-01-01T14:21:28.265Z,102136.03
2023-01-01T14:23:59.723Z,102131.16
2023-01-01T14:26:30.770Z,102123.72
2023-01-01T14:29:02.549Z,102131.09
2023-01-01T14:31:34.892Z,102130.00
2023-01-01T14:34:24.826Z,102142.91
2023-01-01T14:36:58.490Z,102139.91
2023-01-01T14:39:36.672Z,102134.28
2023-01-01T14:42:12.784Z,102151.84
2023-01-01T14:44:43.994Z,102145.13
2023-01-01T14:47:21.911Z,102154.56
2023-01-01T14:49:51.993Z,102144.72
2023-01-01T14:52:26.397Z,102144.97
2023-01-01T14:54:57.652Z,102147.09
2023-01-01T14:57:35.148Z,102145.94
2023-01-01T15:00:25.123Z,102148.97
2023-01-01T15:02:53.377Z,102143.97
2023-01-01T15:05:35.159Z,102144.09
2023-01-01T15:08:06.803Z,102152.31
2023-01-01T15:10:39.075Z,102147.59
2023-01-01T15:13:08.614Z,102150.19
2023-01-01T15:15:54.636Z,102152.59
2023-01-01T15:18:46.676Z,102148.84
2023-01-01T15:21:22.236Z,102148.03
2023-01-01T15:24:11.386Z,102147.75
2023-01-01T15:26:49.292Z,102149.19
2023-01-01T15:29:28.777Z,102151.91
2023-01-01T15:32:25.365Z,102154.34
2023-01-01T15:34:56.272Z,102147.13
2023-01-01T15:37:46.078Z,102155.44
2023-01-01T15:40:35.715Z,102147.66
2023-01-01T15:43:04.096Z,102162.25
2023-01-01T15:45:36.717Z,102160.38
2023-01-01T15:48:06.082Z,102153.09
2023-01-01T15:50:36.039Z,102160.59
2023-01-01T15:53:15.135Z,102172.97
2023-01-01T15:55:46.906Z,102166.94
2023-01-01T15:58:30.489Z,102179.09
2023-01-01T16:01:02.694Z,102175.34
2023-01-01T16:03:33.600Z,102165.63
2023-01-01T16:06:01.784Z,102159.16
2023-01-01T16:08:30.107Z,102162.63
2023-01-01T16:10:59.623Z,102162.97
2023-01-01T16:13:27.948Z,102168.97
2023-01-01T16:16:01.546Z,102174.16
2023-01-01T16:18:33.604Z,102173.94
2023-01-01T16:21:03.623Z,102174.38
2023-01-01T16:23:32.200Z,102171.22
2023-01-01T16:26:00.239Z,102176.00
2023-01-01T16:28:29.185Z,102176.72
2023-01-01T16:30:58.450Z,102170.72
2023-01-01T16:33:26.896Z,102167.78
2023-01-01T16:35:55.391Z,102177.06
2023-01-01T16:38:23.727Z,102178.16
2023-01-01T16:40:52.861Z,102175.91
2023-01-01T16:43:21.504Z,102182.41
2023-01-01T16:45:49.552Z,102166.22
2023-01-01T16:48:17.886Z,102177.25
2023-01-01T16:50:45.904Z,102171.19
2023-01-01T16:53:15.388Z,102187.34
2023-01-01T16:55:43.395Z,102184.19
2023-01-01T16:58:47.886Z,102179.63
2023-01-01T17:01:01.385Z,102186.41
2023-01-01T17:03:32.781Z,102185.88
2023-01-01T17:06:09.576Z,102181.31
2023-01-01T17:08:39.520Z,102186.25
2023-01-01T17:11:17.034Z,102179.22
2023-01-01T17:13:47.896Z,102190.09
2023-01-01T17:16:23.454Z,102190.91
2023-01-01T17:21:44.889Z,102183.94
2023-01-01T17:24:14.007Z,102195.53
2023-01-01T17:26:42.183Z,102191.47
2023-01-01T17:29:10.597Z,102197.81
2023-01-01T17:31:38.634Z,102189.50
2023-01-01T17:34:08.267Z,102192.28
2023-01-01T17:36:39.702Z,102197.88
2023-01-01T17:39:13.619Z,102187.28
2023-01-01T17:41:43.139Z,102191.38
2023-01-01T17:44:12.014Z,102198.88
2023-01-01T17:46:40.539Z,102199.25
2023-01-01T17:49:10.750Z,102203.00
2023-01-01T17:51:39.622Z,102201.19
2023-01-01T17:54:13.464Z,102194.38
2023-01-01T17:56:41.680Z,102200.69
2023-01-01T17:59:10.392Z,102201.66
2023-01-01T18:01:38.579Z,102202.78
2023-01-01T18:04:10.280Z,102208.59
2023-01-01T18:06:43.057Z,102202.03
2023-01-01T18:09:14.050Z,102198.66
2023-01-01T18:11:42.646Z,102200.53
2023-01-01T18:14:12.439Z,102198.63
2023-01-01T18:16:44.125Z,102195.47
2023-01-01T18:19:12.559Z,102197.75
2023-01-01T18:21:41.006Z,102203.84
2023-01-01T18:24:13.575Z,102210.72
2023-01-01T18:26:42.038Z,102204.44
2023-01-01T18:29:10.599Z,102205.19
2023-01-01T18:31:38.678Z,102203.38
2023-01-01T18:34:08.270Z,102205.88
2023-01-01T18:36:37.085Z,102214.84
2023-01-01T18:39:10.061Z,102213.53
2023-01-01T18:42:01.490Z,102201.47
2023-01-01T18:44:32.061Z,102209.38
2023-01-01T18:47:00.044Z,102218.16
2023-01-01T18:49:30.939Z,102213.63
2023-01-01T18:52:08.599Z,102214.00
2023-01-01T18:54:36.997Z,102222.31
2023-01-01T18:57:07.980Z,102222.56
2023-01-01T18:59:40.486Z,102221.47
2023-01-01T19:02:21.454Z,102217.72
2023-01-01T19:04:51.469Z,102224.06
2023-01-01T19:07:19.553Z,102230.69
2023-01-01T19:09:51.673Z,102223.88
2023-01-01T19:12:24.877Z,102220.88
2023-01-01T19:14:53.602Z,102227.25
2023-01-01T19:17:23.881Z,102228.94
2023-01-01T19:19:54.932Z,102229.22
2023-01-01T19:22:31.515Z,102230.25
2023-01-01T19:25:22.524Z,102229.22
2023-01-01T19:27:53.613Z,102232.19
2023-01-01T19:30:25.935Z,102222.09
2023-01-01T19:32:54.671Z,102212.44
2023-01-01T19:35:23.652Z,102220.50
2023-01-01T19:37:52.232Z,102229.28
2023-01-01T19:40:24.322Z,102225.63
2023-01-01T19:42:52.889Z,102233.28
2023-01-01T19:45:21.240Z,102233.63
2023-01-01T19:47:49.117Z,102236.13
2023-01-01T19:50:17.416Z,102232.44
2023-01-01T19:52:45.347Z,102228.13
2023-01-01T19:55:13.556Z,102232.38
2023-01-01T19:57:41.486Z,102236.56
2023-01-01T20:00:10.117Z,102237.16
2023-01-01T20:02:46.586Z,102230.75
2023-01-01T20:05:16.398Z,102240.13
2023-01-01T20:07:44.378Z,102232.88
2023-01-01T20:10:13.300Z,102231.47
2023-01-01T20:12:41.291Z,102240.66
2023-01-01T20:15:09.925Z,102243.38
2023-01-01T20:17:37.877Z,102238.00
2023-01-01T20:20:06.897Z,102240.81
2023-01-01T20:22:34.947Z,102244.91
2023-01-01T20:25:03.934Z,102248.25
2023-01-01T20:27:32.023Z,102244.50
2023-01-01T20:30:00.453Z,102244.38
2023-01-01T20:32:29.324Z,102253.69
2023-01-01T20:34:58.333Z,102246.78
2023-01-01T20:37:38.907Z,102255.31
2023-01-01T20:40:10.584Z,102252.59
2023-01-01T20:42:38.713Z,102253.72
2023-01-01T20:45:08.428Z,102255.91
2023-01-01T20:47:37.969Z,102247.81
2023-01-01T20:50:07.423Z,102247.81
2023-01-01T20:52:35.421Z,102251.31
2023-01-01T20:55:05.373Z,102257.09
2023-01-01T20:57:33.613Z,102255.00
2023-01-01T21:00:02.081Z,102262.72
2023-01-01T21:02:30.245Z,102257.28
2023-01-01T21:04:58.896Z,102260.50
2023-01-01T21:07:26.778Z,102262.66
2023-01-01T21:09:56.491Z,102255.06
2023-01-01T21:12:24.560Z,102252.97
2023-01-01T21:14:56.488Z,102247.69
2023-01-01T21:17:24.815Z,102250.97
2023-01-01T21:19:56.316Z,102249.06
2023-01-01T21:22:24.445Z,102243.41
2023-01-01T21:24:55.361Z,102252.22
2023-01-01T21:27:34.393Z,102245.63
2023-01-01T21:30:02.908Z,102250.50
2023-01-01T21:32:39.417Z,102252.34
2023-01-01T21:35:24.450Z,102250.13
2023-01-01T21:37:55.312Z,102250.69
2023-01-01T21:40:47.049Z,102258.38
2023-01-01T21:43:36.014Z,102248.97
2023-01-01T21:46:08.686Z,102252.16
2023-01-01T21:48:47.447Z,102258.91
2023-01-01T21:51:46.374Z,102259.09
2023-01-01T21:54:21.800Z,102259.13
2023-01-01T21:56:58.047Z,102256.72
2023-01-01T21:59:33.422Z,102256.00
2023-01-01T22:02:05.813Z,102254.28
2023-01-01T22:04:42.593Z,102262.28
2023-01-01T22:10:30.617Z,102254.16
2023-01-01T22:13:01.031Z,102256.88
2023-01-01T22:15:42.977Z,102252.31
2023-01-01T22:18:26.666Z,102255.50
2023-01-01T22:20:56.498Z,102262.69
2023-01-01T22:23:38.672Z,102268.44
2023-01-01T22:26:18.214Z,102267.00
2023-01-01T22:28:49.696Z,102267.72
2023-01-01T22:31:22.743Z,102264.56
2023-01-01T22:33:54.163Z,102259.81
2023-01-01T22:36:28.241Z,102259.28
2023-01-01T22:39:02.851Z,102260.59
2023-01-01T22:41:30.900Z,102252.78
2023-01-01T22:44:02.982Z,102246.13
2023-01-01T22:46:40.836Z,102246.25
2023-01-01T22:49:19.391Z,102244.63
2023-01-01T22:51:48.358Z,102242.97
2023-01-01T22:54:17.922Z,102250.94
2023-01-01T22:56:45.786Z,102246.25
2023-01-01T22:59:14.116Z,102251.88
2023-01-01T23:01:42.179Z,102247.84
2023-01-01T23:04:10.487Z,102242.78
2023-01-01T23:06:38.806Z,102239.28
2023-01-01T23:09:08.713Z,102237.81
2023-01-01T23:11:37.360Z,102239.19
2023-01-01T23:14:25.106Z,102234.06
2023-01-01T23:16:53.051Z,102232.44
2023-01-01T23:19:22.298Z,102233.03
2023-01-01T23:21:50.342Z,102226.09
2023-01-01T23:24:21.275Z,102222.25
2023-01-01T23:26:50.272Z,102220.38
2023-01-01T23:29:21.102Z,102221.03
2023-01-01T23:31:49.771Z,102217.97
2023-01-01T23:34:19.314Z,102212.53
2023-01-01T23:36:49.199Z,102216.31
2023-01-01T23:39:18.379Z,102215.06
2023-01-01T23:41:48.189Z,102223.72
2023-01-01T23:44:16.419Z,102212.44
2023-01-01T23:46:45.000Z,102213.25
2023-01-01T23:49:14.742Z,102216.66
2023-01-01T23:51:42.881Z,102214.03
2023-01-01T23:54:12.080Z,102205.97
2023-01-01T23:56:39.965Z,102204.47
2023-01-01T23:59:09.330Z,102196.31
